Zazoe — PH6558 — position and weather

sailwx.info

Track history (hours):
 
Tides and Currents Weather Stations Pressure Air Temp Water Temp Dewpoint Dewpoint Depression Visibility Wind Speed Wind Dir Waves Ship Positions

Zazoe

Last reported at 2014-Jul-25 23:25 UTC. Time now 2014-Jul-31 17:34 UTC.
Position N 55°37' E 012°59'.

Length 15 m.

Type: Pleasure craft. MMSI: 244050035.

Date/timePositionNaut miles runAvg speedWind from/ knotsBaromVisibWave heightAir tempDewpointWater temp
2014-Jul-25 23:25N 55°37' E 012°59'0 0.0
2014-Jul-25 22:31N 55°37' E 012°59'0 0.0
2014-Jul-25 21:28N 55°37' E 012°59'0 0.0
2014-Jul-25 20:31N 55°37' E 012°59'0 0.0
2014-Jul-25 19:31N 55°37' E 012°59'0 0.0
2014-Jul-25 18:31N 55°37' E 012°59'0 0.0
2014-Jul-25 17:31N 55°37' E 012°59'0 0.0
2014-Jul-25 16:31N 55°37' E 012°59'0 0.0
2014-Jul-25 15:31N 55°37' E 012°59'0 0.2
2014-Jul-25 14:33N 55°37' E 012°60'7 6.7
2014-Jul-25 13:28N 55°43' E 012°52'13 0.5
2014-Jul-24 12:04N 55°54' E 012°39'2 3.8
2014-Jul-24 11:33N 55°56' E 012°38'3 3.5
2014-Jul-24 10:33N 55°60' E 012°37'3 0.1
2014-Jul-22 17:29N 56°03' E 012°37'0 0.0
2014-Jul-22 16:29N 56°03' E 012°37'1 0.7
2014-Jul-22 15:33N 56°03' E 012°37'26 0.9
2014-Jul-21 11:32N 56°28' E 012°49'25 1.2
2014-Jul-20 14:09N 56°51' E 012°29'4 6.1
2014-Jul-20 13:33N 56°53' E 012°24'5 5.0
2014-Jul-20 12:33N 56°57' E 012°18'42 1.6
2014-Jul-19 10:31N 57°36' E 011°49'5 4.7
2014-Jul-19 09:31N 57°40' E 011°50'5 4.3
2014-Jul-19 08:26N 57°43' E 011°58'1 0.0
2014-Jul-17 13:33N 57°42' E 011°57'6 5.6
2014-Jul-17 12:33N 57°41' E 011°47'4 4.5
2014-Jul-17 11:33N 57°43' E 011°40'  
Track history (hours):
 
Tides and Currents Weather Stations Pressure Air Temp Water Temp Dewpoint Dewpoint Depression Visibility Wind Speed Wind Dir Waves Ship Positions

Zazoe

Last reported at 2014-Jul-25 23:25 UTC. Time now 2014-Jul-31 17:34 UTC.
Position N 55°37' E 012°59'.

Length 15 m.

Type: Pleasure craft. MMSI: 244050035.

Date/timePositionNaut miles runAvg speedWind from/ knotsBaromVisibWave heightAir tempDewpointWater temp
2014-Jul-25 23:25N 55°37' E 012°59'0 0.0
2014-Jul-25 22:31N 55°37' E 012°59'0 0.0
2014-Jul-25 21:28N 55°37' E 012°59'0 0.0
2014-Jul-25 20:31N 55°37' E 012°59'0 0.0
2014-Jul-25 19:31N 55°37' E 012°59'0 0.0
2014-Jul-25 18:31N 55°37' E 012°59'0 0.0
2014-Jul-25 17:31N 55°37' E 012°59'0 0.0
2014-Jul-25 16:31N 55°37' E 012°59'0 0.0
2014-Jul-25 15:31N 55°37' E 012°59'0 0.2
2014-Jul-25 14:33N 55°37' E 012°60'7 6.7
2014-Jul-25 13:28N 55°43' E 012°52'13 0.5
2014-Jul-24 12:04N 55°54' E 012°39'2 3.8
2014-Jul-24 11:33N 55°56' E 012°38'3 3.5
2014-Jul-24 10:33N 55°60' E 012°37'3 0.1
2014-Jul-22 17:29N 56°03' E 012°37'0 0.0
2014-Jul-22 16:29N 56°03' E 012°37'1 0.7
2014-Jul-22 15:33N 56°03' E 012°37'26 0.9
2014-Jul-21 11:32N 56°28' E 012°49'25 1.2
2014-Jul-20 14:09N 56°51' E 012°29'4 6.1
2014-Jul-20 13:33N 56°53' E 012°24'5 5.0
2014-Jul-20 12:33N 56°57' E 012°18'42 1.6
2014-Jul-19 10:31N 57°36' E 011°49'5 4.7
2014-Jul-19 09:31N 57°40' E 011°50'5 4.3
2014-Jul-19 08:26N 57°43' E 011°58'1 0.0
2014-Jul-17 13:33N 57°42' E 011°57'6 5.6
2014-Jul-17 12:33N 57°41' E 011°47'4 4.5
2014-Jul-17 11:33N 57°43' E 011°40'  

Dump ship's entire track history